sensor_id;sensor_type;location;lat;lon;timestamp;temperature;humidity
65478;SHT31;53678;39.642;22.430;2023-12-20T00:00:36;5.10;92.72
65478;SHT31;53678;39.642;22.430;2023-12-20T00:03:03;4.86;93.70
65478;SHT31;53678;39.642;22.430;2023-12-20T00:05:30;4.79;95.12
65478;SHT31;53678;39.642;22.430;2023-12-20T00:07:57;4.83;94.77
65478;SHT31;53678;39.642;22.430;2023-12-20T00:10:23;4.91;94.79
65478;SHT31;53678;39.642;22.430;2023-12-20T00:12:48;4.97;94.40
65478;SHT31;53678;39.642;22.430;2023-12-20T00:15:14;5.03;94.27
65478;SHT31;53678;39.642;22.430;2023-12-20T00:17:40;5.13;94.29
65478;SHT31;53678;39.642;22.430;2023-12-20T00:20:06;5.23;94.03
65478;SHT31;53678;39.642;22.430;2023-12-20T00:22:32;5.36;93.88
65478;SHT31;53678;39.642;22.430;2023-12-20T00:24:58;5.40;93.44
65478;SHT31;53678;39.642;22.430;2023-12-20T00:27:23;5.43;93.09
65478;SHT31;53678;39.642;22.430;2023-12-20T00:29:49;5.46;92.73
65478;SHT31;53678;39.642;22.430;2023-12-20T00:32:16;5.36;92.48
65478;SHT31;53678;39.642;22.430;2023-12-20T00:34:43;5.27;92.20
65478;SHT31;53678;39.642;22.430;2023-12-20T00:37:08;5.22;92.42
65478;SHT31;53678;39.642;22.430;2023-12-20T00:39:34;5.16;92.68
65478;SHT31;53678;39.642;22.430;2023-12-20T00:41:59;5.13;92.89
65478;SHT31;53678;39.642;22.430;2023-12-20T00:44:27;5.10;93.00
65478;SHT31;53678;39.642;22.430;2023-12-20T00:46:52;5.05;93.00
65478;SHT31;53678;39.642;22.430;2023-12-20T00:49:18;5.02;93.27
65478;SHT31;53678;39.642;22.430;2023-12-20T00:51:44;4.95;93.39
65478;SHT31;53678;39.642;22.430;2023-12-20T00:54:09;4.99;93.69
65478;SHT31;53678;39.642;22.430;2023-12-20T00:56:35;5.00;93.66
65478;SHT31;53678;39.642;22.430;2023-12-20T00:59:01;5.06;93.22
65478;SHT31;53678;39.642;22.430;2023-12-20T01:01:26;4.96;93.35
65478;SHT31;53678;39.642;22.430;2023-12-20T01:03:52;4.92;93.56
65478;SHT31;53678;39.642;22.430;2023-12-20T01:06:18;4.72;93.51
65478;SHT31;53678;39.642;22.430;2023-12-20T01:08:43;4.78;94.33
65478;SHT31;53678;39.642;22.430;2023-12-20T01:11:09;4.75;94.35
65478;SHT31;53678;39.642;22.430;2023-12-20T01:13:35;4.75;94.22
65478;SHT31;53678;39.642;22.430;2023-12-20T01:16:01;4.76;93.97
65478;SHT31;53678;39.642;22.430;2023-12-20T01:18:27;4.72;94.27
65478;SHT31;53678;39.642;22.430;2023-12-20T01:20:53;4.69;94.63
65478;SHT31;53678;39.642;22.430;2023-12-20T01:23:19;4.60;94.50
65478;SHT31;53678;39.642;22.430;2023-12-20T01:25:44;4.61;95.19
65478;SHT31;53678;39.642;22.430;2023-12-20T01:28:10;4.61;94.51
65478;SHT31;53678;39.642;22.430;2023-12-20T01:30:36;4.62;94.28
65478;SHT31;53678;39.642;22.430;2023-12-20T01:33:01;4.51;93.77
65478;SHT31;53678;39.642;22.430;2023-12-20T01:35:27;4.48;94.31
65478;SHT31;53678;39.642;22.430;2023-12-20T01:37:54;4.54;94.46
65478;SHT31;53678;39.642;22.430;2023-12-20T01:40:23;4.50;94.20
65478;SHT31;53678;39.642;22.430;2023-12-20T01:43:02;4.47;94.01
65478;SHT31;53678;39.642;22.430;2023-12-20T01:45:28;4.40;94.16
65478;SHT31;53678;39.642;22.430;2023-12-20T01:47:58;4.37;94.26
65478;SHT31;53678;39.642;22.430;2023-12-20T01:50:25;4.30;94.54
65478;SHT31;53678;39.642;22.430;2023-12-20T01:52:52;4.34;94.41
65478;SHT31;53678;39.642;22.430;2023-12-20T01:55:19;4.34;94.62
65478;SHT31;53678;39.642;22.430;2023-12-20T01:57:46;4.38;94.86
65478;SHT31;53678;39.642;22.430;2023-12-20T02:00:13;4.47;95.35
65478;SHT31;53678;39.642;22.430;2023-12-20T02:02:40;4.44;94.96
65478;SHT31;53678;39.642;22.430;2023-12-20T02:05:06;4.51;95.13
65478;SHT31;53678;39.642;22.430;2023-12-20T02:07:32;4.48;95.01
65478;SHT31;53678;39.642;22.430;2023-12-20T02:10:01;4.50;94.74
65478;SHT31;53678;39.642;22.430;2023-12-20T02:12:27;4.48;94.73
65478;SHT31;53678;39.642;22.430;2023-12-20T02:14:53;4.37;94.63
65478;SHT31;53678;39.642;22.430;2023-12-20T02:17:20;4.24;95.00
65478;SHT31;53678;39.642;22.430;2023-12-20T02:19:45;4.06;94.67
65478;SHT31;53678;39.642;22.430;2023-12-20T02:22:12;3.96;95.20
65478;SHT31;53678;39.642;22.430;2023-12-20T02:24:38;3.83;94.90
65478;SHT31;53678;39.642;22.430;2023-12-20T02:27:05;3.72;94.51
65478;SHT31;53678;39.642;22.430;2023-12-20T02:29:33;3.62;94.33
65478;SHT31;53678;39.642;22.430;2023-12-20T02:31:58;3.69;94.76
65478;SHT31;53678;39.642;22.430;2023-12-20T02:34:24;3.78;94.41
65478;SHT31;53678;39.642;22.430;2023-12-20T02:36:50;3.79;93.70
65478;SHT31;53678;39.642;22.430;2023-12-20T02:39:16;3.79;92.84
65478;SHT31;53678;39.642;22.430;2023-12-20T02:41:42;3.81;92.72
65478;SHT31;53678;39.642;22.430;2023-12-20T02:44:08;3.85;92.72
65478;SHT31;53678;39.642;22.430;2023-12-20T02:46:33;3.86;92.85
65478;SHT31;53678;39.642;22.430;2023-12-20T02:48:59;3.89;92.62
65478;SHT31;53678;39.642;22.430;2023-12-20T02:51:25;3.90;92.75
65478;SHT31;53678;39.642;22.430;2023-12-20T02:53:50;3.93;92.59
65478;SHT31;53678;39.642;22.430;2023-12-20T02:56:17;3.97;93.07
65478;SHT31;53678;39.642;22.430;2023-12-20T02:58:43;3.85;92.88
65478;SHT31;53678;39.642;22.430;2023-12-20T03:01:10;3.92;92.74
65478;SHT31;53678;39.642;22.430;2023-12-20T03:03:35;3.93;92.37
65478;SHT31;53678;39.642;22.430;2023-12-20T03:06:01;3.90;92.37
65478;SHT31;53678;39.642;22.430;2023-12-20T03:08:27;3.89;92.23
65478;SHT31;53678;39.642;22.430;2023-12-20T03:10:52;3.93;92.38
65478;SHT31;53678;39.642;22.430;2023-12-20T03:13:19;3.85;92.43
65478;SHT31;53678;39.642;22.430;2023-12-20T03:15:45;3.87;93.02
65478;SHT31;53678;39.642;22.430;2023-12-20T03:18:11;3.93;93.16
65478;SHT31;53678;39.642;22.430;2023-12-20T03:20:37;4.07;93.90
65478;SHT31;53678;39.642;22.430;2023-12-20T03:23:03;4.16;93.59
65478;SHT31;53678;39.642;22.430;2023-12-20T03:25:28;4.23;93.40
65478;SHT31;53678;39.642;22.430;2023-12-20T03:27:54;4.21;93.32
65478;SHT31;53678;39.642;22.430;2023-12-20T03:30:20;4.20;93.37
65478;SHT31;53678;39.642;22.430;2023-12-20T03:32:46;4.18;93.38
65478;SHT31;53678;39.642;22.430;2023-12-20T03:35:12;4.11;93.44
65478;SHT31;53678;39.642;22.430;2023-12-20T03:37:38;4.06;93.70
65478;SHT31;53678;39.642;22.430;2023-12-20T03:40:04;3.97;93.45
65478;SHT31;53678;39.642;22.430;2023-12-20T03:42:30;3.87;93.29
65478;SHT31;53678;39.642;22.430;2023-12-20T03:44:56;3.82;93.70
65478;SHT31;53678;39.642;22.430;2023-12-20T03:47:22;3.87;93.29
65478;SHT31;53678;39.642;22.430;2023-12-20T03:49:49;3.86;92.96
65478;SHT31;53678;39.642;22.430;2023-12-20T03:52:14;3.86;92.36
65478;SHT31;53678;39.642;22.430;2023-12-20T03:54:40;3.86;91.92
65478;SHT31;53678;39.642;22.430;2023-12-20T03:57:07;3.82;91.70
65478;SHT31;53678;39.642;22.430;2023-12-20T03:59:37;3.69;91.66
65478;SHT31;53678;39.642;22.430;2023-12-20T04:02:03;3.66;92.19
65478;SHT31;53678;39.642;22.430;2023-12-20T04:04:29;3.72;92.39
65478;SHT31;53678;39.642;22.430;2023-12-20T04:06:55;3.82;92.47
65478;SHT31;53678;39.642;22.430;2023-12-20T04:09:21;3.79;92.28
65478;SHT31;53678;39.642;22.430;2023-12-20T04:11:47;3.87;92.76
65478;SHT31;53678;39.642;22.430;2023-12-20T04:14:12;3.97;92.60
65478;SHT31;53678;39.642;22.430;2023-12-20T04:16:38;4.02;92.48
65478;SHT31;53678;39.642;22.430;2023-12-20T04:19:04;3.81;91.67
65478;SHT31;53678;39.642;22.430;2023-12-20T04:21:30;3.62;91.80
65478;SHT31;53678;39.642;22.430;2023-12-20T04:23:57;3.54;92.08
65478;SHT31;53678;39.642;22.430;2023-12-20T04:26:22;3.44;91.89
65478;SHT31;53678;39.642;22.430;2023-12-20T04:28:48;3.23;92.05
65478;SHT31;53678;39.642;22.430;2023-12-20T04:31:14;3.11;92.30
65478;SHT31;53678;39.642;22.430;2023-12-20T04:33:39;3.20;92.29
65478;SHT31;53678;39.642;22.430;2023-12-20T04:36:05;2.96;91.82
65478;SHT31;53678;39.642;22.430;2023-12-20T04:38:31;2.73;92.82
65478;SHT31;53678;39.642;22.430;2023-12-20T04:40:57;2.76;93.64
65478;SHT31;53678;39.642;22.430;2023-12-20T04:43:22;2.92;93.80
65478;SHT31;53678;39.642;22.430;2023-12-20T04:45:48;3.10;93.36
65478;SHT31;53678;39.642;22.430;2023-12-20T04:48:14;3.16;92.84
65478;SHT31;53678;39.642;22.430;2023-12-20T04:50:39;3.21;92.18
65478;SHT31;53678;39.642;22.430;2023-12-20T04:53:05;3.07;90.67
65478;SHT31;53678;39.642;22.430;2023-12-20T04:55:32;3.03;91.52
65478;SHT31;53678;39.642;22.430;2023-12-20T04:57:57;3.00;91.33
65478;SHT31;53678;39.642;22.430;2023-12-20T05:00:23;3.04;91.49
65478;SHT31;53678;39.642;22.430;2023-12-20T05:02:49;2.99;91.36
65478;SHT31;53678;39.642;22.430;2023-12-20T05:05:16;3.06;92.32
65478;SHT31;53678;39.642;22.430;2023-12-20T05:07:43;3.01;91.26
65478;SHT31;53678;39.642;22.430;2023-12-20T05:10:09;2.94;90.61
65478;SHT31;53678;39.642;22.430;2023-12-20T05:12:35;2.92;90.73
65478;SHT31;53678;39.642;22.430;2023-12-20T05:15:01;2.90;90.95
65478;SHT31;53678;39.642;22.430;2023-12-20T05:17:26;2.87;91.16
65478;SHT31;53678;39.642;22.430;2023-12-20T05:19:52;2.85;91.07
65478;SHT31;53678;39.642;22.430;2023-12-20T05:22:19;2.89;91.32
65478;SHT31;53678;39.642;22.430;2023-12-20T05:24:45;2.96;91.38
65478;SHT31;53678;39.642;22.430;2023-12-20T05:27:10;2.90;90.41
65478;SHT31;53678;39.642;22.430;2023-12-20T05:29:37;2.94;91.07
65478;SHT31;53678;39.642;22.430;2023-12-20T05:32:03;3.04;90.76
65478;SHT31;53678;39.642;22.430;2023-12-20T05:34:32;3.37;90.22
65478;SHT31;53678;39.642;22.430;2023-12-20T05:36:59;3.34;90.25
65478;SHT31;53678;39.642;22.430;2023-12-20T05:39:27;3.27;89.68
65478;SHT31;53678;39.642;22.430;2023-12-20T05:41:59;3.21;89.22
65478;SHT31;53678;39.642;22.430;2023-12-20T05:44:25;3.14;89.61
65478;SHT31;53678;39.642;22.430;2023-12-20T05:46:50;2.97;89.69
65478;SHT31;53678;39.642;22.430;2023-12-20T05:49:16;2.97;89.97
65478;SHT31;53678;39.642;22.430;2023-12-20T05:51:42;2.87;90.28
65478;SHT31;53678;39.642;22.430;2023-12-20T05:54:09;2.80;90.74
65478;SHT31;53678;39.642;22.430;2023-12-20T05:56:35;2.76;90.64
65478;SHT31;53678;39.642;22.430;2023-12-20T05:59:02;2.59;91.85
65478;SHT31;53678;39.642;22.430;2023-12-20T06:01:28;2.69;92.37
65478;SHT31;53678;39.642;22.430;2023-12-20T06:03:54;2.65;91.40
65478;SHT31;53678;39.642;22.430;2023-12-20T06:06:19;2.69;92.50
65478;SHT31;53678;39.642;22.430;2023-12-20T06:08:45;2.67;91.66
65478;SHT31;53678;39.642;22.430;2023-12-20T06:11:11;2.82;91.37
65478;SHT31;53678;39.642;22.430;2023-12-20T06:13:36;2.87;91.02
65478;SHT31;53678;39.642;22.430;2023-12-20T06:16:05;2.75;90.59
65478;SHT31;53678;39.642;22.430;2023-12-20T06:18:31;2.67;89.84
65478;SHT31;53678;39.642;22.430;2023-12-20T06:20:57;2.75;90.07
65478;SHT31;53678;39.642;22.430;2023-12-20T06:23:23;2.83;88.89
65478;SHT31;53678;39.642;22.430;2023-12-20T06:25:50;2.80;89.88
65478;SHT31;53678;39.642;22.430;2023-12-20T06:28:16;3.44;89.91
65478;SHT31;53678;39.642;22.430;2023-12-20T06:30:43;4.50;87.07
65478;SHT31;53678;39.642;22.430;2023-12-20T06:33:08;5.46;83.10
65478;SHT31;53678;39.642;22.430;2023-12-20T06:35:36;6.33;80.26
65478;SHT31;53678;39.642;22.430;2023-12-20T06:38:01;7.20;78.35
65478;SHT31;53678;39.642;22.430;2023-12-20T06:40:27;7.32;75.83
65478;SHT31;53678;39.642;22.430;2023-12-20T06:42:54;6.83;76.20
65478;SHT31;53678;39.642;22.430;2023-12-20T06:45:20;5.57;79.39
65478;SHT31;53678;39.642;22.430;2023-12-20T06:47:45;4.93;82.49
65478;SHT31;53678;39.642;22.430;2023-12-20T06:50:11;4.75;83.94
65478;SHT31;53678;39.642;22.430;2023-12-20T06:52:38;5.03;85.29
65478;SHT31;53678;39.642;22.430;2023-12-20T06:55:06;5.72;81.93
65478;SHT31;53678;39.642;22.430;2023-12-20T06:57:31;6.23;80.14
65478;SHT31;53678;39.642;22.430;2023-12-20T06:59:57;6.99;79.03
65478;SHT31;53678;39.642;22.430;2023-12-20T07:02:23;7.62;77.25
65478;SHT31;53678;39.642;22.430;2023-12-20T07:04:49;8.46;75.60
65478;SHT31;53678;39.642;22.430;2023-12-20T07:07:14;9.04;72.24
65478;SHT31;53678;39.642;22.430;2023-12-20T07:09:40;9.59;70.44
65478;SHT31;53678;39.642;22.430;2023-12-20T07:12:09;9.86;70.41
65478;SHT31;53678;39.642;22.430;2023-12-20T07:14:36;9.56;70.68
65478;SHT31;53678;39.642;22.430;2023-12-20T07:17:02;9.66;70.79
65478;SHT31;53678;39.642;22.430;2023-12-20T07:19:28;10.06;69.48
65478;SHT31;53678;39.642;22.430;2023-12-20T07:21:55;9.82;70.57
65478;SHT31;53678;39.642;22.430;2023-12-20T07:24:20;9.52;70.46
65478;SHT31;53678;39.642;22.430;2023-12-20T07:26:46;8.01;75.55
65478;SHT31;53678;39.642;22.430;2023-12-20T07:29:12;7.97;76.34
65478;SHT31;53678;39.642;22.430;2023-12-20T07:31:37;8.01;77.02
65478;SHT31;53678;39.642;22.430;2023-12-20T07:34:05;8.17;75.94
65478;SHT31;53678;39.642;22.430;2023-12-20T07:36:30;7.94;76.17
65478;SHT31;53678;39.642;22.430;2023-12-20T07:38:56;7.98;78.32
65478;SHT31;53678;39.642;22.430;2023-12-20T07:41:22;7.90;77.22
65478;SHT31;53678;39.642;22.430;2023-12-20T07:43:50;7.78;76.98
65478;SHT31;53678;39.642;22.430;2023-12-20T07:46:16;7.59;77.91
65478;SHT31;53678;39.642;22.430;2023-12-20T07:48:42;7.53;78.70
65478;SHT31;53678;39.642;22.430;2023-12-20T07:51:07;7.50;79.10
65478;SHT31;53678;39.642;22.430;2023-12-20T07:53:35;7.59;79.31
65478;SHT31;53678;39.642;22.430;2023-12-20T07:56:02;7.47;79.95
65478;SHT31;53678;39.642;22.430;2023-12-20T07:58:27;7.32;80.15
65478;SHT31;53678;39.642;22.430;2023-12-20T08:00:55;7.36;79.95
65478;SHT31;53678;39.642;22.430;2023-12-20T08:03:21;7.35;81.17
65478;SHT31;53678;39.642;22.430;2023-12-20T08:05:46;7.63;81.63
65478;SHT31;53678;39.642;22.430;2023-12-20T08:08:12;7.67;81.10
65478;SHT31;53678;39.642;22.430;2023-12-20T08:10:38;7.71;81.05
65478;SHT31;53678;39.642;22.430;2023-12-20T08:13:04;7.57;81.55
65478;SHT31;53678;39.642;22.430;2023-12-20T08:15:30;7.42;82.54
65478;SHT31;53678;39.642;22.430;2023-12-20T08:17:57;7.22;82.67
65478;SHT31;53678;39.642;22.430;2023-12-20T08:20:23;7.18;84.12
65478;SHT31;53678;39.642;22.430;2023-12-20T08:22:49;7.63;83.99
65478;SHT31;53678;39.642;22.430;2023-12-20T08:25:15;7.87;83.23
65478;SHT31;53678;39.642;22.430;2023-12-20T08:27:41;7.83;83.16
65478;SHT31;53678;39.642;22.430;2023-12-20T08:30:09;8.66;86.84
65478;SHT31;53678;39.642;22.430;2023-12-20T08:32:35;8.53;81.87
65478;SHT31;53678;39.642;22.430;2023-12-20T08:35:01;8.65;81.30
65478;SHT31;53678;39.642;22.430;2023-12-20T08:37:28;8.88;80.05
65478;SHT31;53678;39.642;22.430;2023-12-20T08:39:55;8.86;80.14
65478;SHT31;53678;39.642;22.430;2023-12-20T08:42:21;8.99;79.44
65478;SHT31;53678;39.642;22.430;2023-12-20T08:44:47;8.81;80.47
65478;SHT31;53678;39.642;22.430;2023-12-20T08:47:13;8.94;80.74
65478;SHT31;53678;39.642;22.430;2023-12-20T08:49:41;9.08;79.78
65478;SHT31;53678;39.642;22.430;2023-12-20T08:52:06;9.04;79.01
65478;SHT31;53678;39.642;22.430;2023-12-20T08:54:32;9.01;80.37
65478;SHT31;53678;39.642;22.430;2023-12-20T08:57:00;8.96;80.20
65478;SHT31;53678;39.642;22.430;2023-12-20T08:59:25;8.79;81.80
65478;SHT31;53678;39.642;22.430;2023-12-20T09:01:51;9.15;80.29
65478;SHT31;53678;39.642;22.430;2023-12-20T09:04:20;9.08;80.50
65478;SHT31;53678;39.642;22.430;2023-12-20T09:06:46;9.13;80.94
65478;SHT31;53678;39.642;22.430;2023-12-20T09:09:12;8.66;82.83
65478;SHT31;53678;39.642;22.430;2023-12-20T09:11:40;9.03;81.98
65478;SHT31;53678;39.642;22.430;2023-12-20T09:14:07;9.25;81.55
65478;SHT31;53678;39.642;22.430;2023-12-20T09:16:35;9.38;81.15
65478;SHT31;53678;39.642;22.430;2023-12-20T09:19:00;9.59;81.07
65478;SHT31;53678;39.642;22.430;2023-12-20T09:21:26;9.49;80.96
65478;SHT31;53678;39.642;22.430;2023-12-20T09:23:51;9.28;81.24
65478;SHT31;53678;39.642;22.430;2023-12-20T09:26:17;9.17;81.93
65478;SHT31;53678;39.642;22.430;2023-12-20T09:28:43;9.23;81.98
65478;SHT31;53678;39.642;22.430;2023-12-20T09:31:09;9.20;81.09
65478;SHT31;53678;39.642;22.430;2023-12-20T09:33:37;9.03;82.11
65478;SHT31;53678;39.642;22.430;2023-12-20T09:36:02;9.01;82.24
65478;SHT31;53678;39.642;22.430;2023-12-20T09:38:28;9.15;81.87
65478;SHT31;53678;39.642;22.430;2023-12-20T09:40:54;9.39;81.05
65478;SHT31;53678;39.642;22.430;2023-12-20T09:43:24;9.44;81.50
65478;SHT31;53678;39.642;22.430;2023-12-20T09:45:53;9.41;81.12
65478;SHT31;53678;39.642;22.430;2023-12-20T09:48:19;9.28;81.46
65478;SHT31;53678;39.642;22.430;2023-12-20T09:50:46;9.25;81.78
65478;SHT31;53678;39.642;22.430;2023-12-20T09:53:15;9.24;82.05
65478;SHT31;53678;39.642;22.430;2023-12-20T09:55:42;9.42;81.72
65478;SHT31;53678;39.642;22.430;2023-12-20T09:58:08;9.59;81.40
65478;SHT31;53678;39.642;22.430;2023-12-20T10:00:37;9.46;82.68
65478;SHT31;53678;39.642;22.430;2023-12-20T10:03:03;9.49;82.60
65478;SHT31;53678;39.642;22.430;2023-12-20T10:05:31;9.55;82.03
65478;SHT31;53678;39.642;22.430;2023-12-20T10:07:57;9.56;82.55
65478;SHT31;53678;39.642;22.430;2023-12-20T10:10:23;9.49;82.24
65478;SHT31;53678;39.642;22.430;2023-12-20T10:13:06;9.63;82.42
65478;SHT31;53678;39.642;22.430;2023-12-20T10:15:33;9.83;81.13
65478;SHT31;53678;39.642;22.430;2023-12-20T10:18:04;9.99;82.11
65478;SHT31;53678;39.642;22.430;2023-12-20T10:20:30;10.02;81.97
65478;SHT31;53678;39.642;22.430;2023-12-20T10:22:58;9.89;81.98
65478;SHT31;53678;39.642;22.430;2023-12-20T10:25:24;10.04;81.69
65478;SHT31;53678;39.642;22.430;2023-12-20T10:28:14;9.96;83.07
65478;SHT31;53678;39.642;22.430;2023-12-20T10:30:42;10.00;83.85
65478;SHT31;53678;39.642;22.430;2023-12-20T10:33:09;9.92;83.81
65478;SHT31;53678;39.642;22.430;2023-12-20T10:35:35;9.87;84.35
65478;SHT31;53678;39.642;22.430;2023-12-20T10:38:03;9.90;84.16
65478;SHT31;53678;39.642;22.430;2023-12-20T10:40:31;10.10;83.68
65478;SHT31;53678;39.642;22.430;2023-12-20T10:43:00;10.21;82.43
65478;SHT31;53678;39.642;22.430;2023-12-20T10:45:26;10.29;82.66
65478;SHT31;53678;39.642;22.430;2023-12-20T10:47:53;10.00;84.18
65478;SHT31;53678;39.642;22.430;2023-12-20T10:50:19;9.78;84.84
65478;SHT31;53678;39.642;22.430;2023-12-20T10:52:46;10.04;84.41
65478;SHT31;53678;39.642;22.430;2023-12-20T10:55:12;10.27;84.13
65478;SHT31;53678;39.642;22.430;2023-12-20T10:57:38;10.38;82.92
65478;SHT31;53678;39.642;22.430;2023-12-20T11:00:06;10.42;83.44
65478;SHT31;53678;39.642;22.430;2023-12-20T11:02:39;10.21;82.99
65478;SHT31;53678;39.642;22.430;2023-12-20T11:07:48;9.97;84.14
65478;SHT31;53678;39.642;22.430;2023-12-20T11:12:52;10.27;84.21
65478;SHT31;53678;39.642;22.430;2023-12-20T11:15:19;10.40;83.76
65478;SHT31;53678;39.642;22.430;2023-12-20T11:17:54;10.44;83.94
65478;SHT31;53678;39.642;22.430;2023-12-20T11:20:22;10.52;84.05
65478;SHT31;53678;39.642;22.430;2023-12-20T11:22:54;10.73;83.10
65478;SHT31;53678;39.642;22.430;2023-12-20T11:25:21;10.82;83.11
65478;SHT31;53678;39.642;22.430;2023-12-20T11:28:07;10.86;83.34
65478;SHT31;53678;39.642;22.430;2023-12-20T11:30:54;10.54;83.79
65478;SHT31;53678;39.642;22.430;2023-12-20T11:33:25;10.76;83.46
65478;SHT31;53678;39.642;22.430;2023-12-20T11:35:51;10.71;83.18
65478;SHT31;53678;39.642;22.430;2023-12-20T11:38:20;10.71;83.32
65478;SHT31;53678;39.642;22.430;2023-12-20T11:40:48;10.71;81.53
65478;SHT31;53678;39.642;22.430;2023-12-20T11:43:37;10.85;81.57
65478;SHT31;53678;39.642;22.430;2023-12-20T11:46:09;10.99;81.46
65478;SHT31;53678;39.642;22.430;2023-12-20T11:48:36;11.18;80.83
65478;SHT31;53678;39.642;22.430;2023-12-20T11:51:02;11.13;80.43
65478;SHT31;53678;39.642;22.430;2023-12-20T11:53:30;10.96;80.08
65478;SHT31;53678;39.642;22.430;2023-12-20T11:55:59;10.86;80.59
65478;SHT31;53678;39.642;22.430;2023-12-20T11:58:25;10.98;81.02
65478;SHT31;53678;39.642;22.430;2023-12-20T12:00:51;11.20;80.57
65478;SHT31;53678;39.642;22.430;2023-12-20T12:03:17;11.39;80.07
65478;SHT31;53678;39.642;22.430;2023-12-20T12:05:47;11.47;80.07
65478;SHT31;53678;39.642;22.430;2023-12-20T12:08:14;11.64;78.57
65478;SHT31;53678;39.642;22.430;2023-12-20T12:10:41;11.75;78.19
65478;SHT31;53678;39.642;22.430;2023-12-20T12:13:07;11.77;78.31
65478;SHT31;53678;39.642;22.430;2023-12-20T12:15:32;11.41;78.56
65478;SHT31;53678;39.642;22.430;2023-12-20T12:17:59;11.40;79.06
65478;SHT31;53678;39.642;22.430;2023-12-20T12:20:25;11.31;79.58
65478;SHT31;53678;39.642;22.430;2023-12-20T12:23:06;11.44;79.23
65478;SHT31;53678;39.642;22.430;2023-12-20T12:25:34;11.46;78.24
65478;SHT31;53678;39.642;22.430;2023-12-20T12:28:02;11.75;77.70
65478;SHT31;53678;39.642;22.430;2023-12-20T12:30:28;11.74;78.16
65478;SHT31;53678;39.642;22.430;2023-12-20T12:32:56;12.52;83.27
65478;SHT31;53678;39.642;22.430;2023-12-20T12:35:22;12.24;77.33
65478;SHT31;53678;39.642;22.430;2023-12-20T12:37:47;11.94;77.36
65478;SHT31;53678;39.642;22.430;2023-12-20T12:40:16;11.81;78.29
65478;SHT31;53678;39.642;22.430;2023-12-20T12:42:43;11.89;78.49
65478;SHT31;53678;39.642;22.430;2023-12-20T12:45:14;11.95;78.15
65478;SHT31;53678;39.642;22.430;2023-12-20T12:47:41;11.98;78.03
65478;SHT31;53678;39.642;22.430;2023-12-20T12:50:07;12.06;78.13
65478;SHT31;53678;39.642;22.430;2023-12-20T12:52:33;12.09;78.00
65478;SHT31;53678;39.642;22.430;2023-12-20T12:54:58;12.15;77.76
65478;SHT31;53678;39.642;22.430;2023-12-20T12:57:24;12.33;77.90
65478;SHT31;53678;39.642;22.430;2023-12-20T12:59:53;12.45;79.00
65478;SHT31;53678;39.642;22.430;2023-12-20T13:02:18;12.37;78.07
65478;SHT31;53678;39.642;22.430;2023-12-20T13:04:44;12.36;77.98
65478;SHT31;53678;39.642;22.430;2023-12-20T13:07:10;12.35;77.41
65478;SHT31;53678;39.642;22.430;2023-12-20T13:09:36;12.21;78.09
65478;SHT31;53678;39.642;22.430;2023-12-20T13:12:02;12.11;78.63
65478;SHT31;53678;39.642;22.430;2023-12-20T13:14:32;12.15;79.13
65478;SHT31;53678;39.642;22.430;2023-12-20T13:17:00;12.25;79.22
65478;SHT31;53678;39.642;22.430;2023-12-20T13:19:26;12.55;81.70
65478;SHT31;53678;39.642;22.430;2023-12-20T13:21:52;12.64;79.50
65478;SHT31;53678;39.642;22.430;2023-12-20T13:24:18;12.79;80.83
65478;SHT31;53678;39.642;22.430;2023-12-20T13:26:44;12.79;78.82
65478;SHT31;53678;39.642;22.430;2023-12-20T13:29:09;12.52;79.03
65478;SHT31;53678;39.642;22.430;2023-12-20T13:31:35;12.47;79.33
65478;SHT31;53678;39.642;22.430;2023-12-20T13:34:02;12.49;79.61
65478;SHT31;53678;39.642;22.430;2023-12-20T13:36:28;12.46;79.35
65478;SHT31;53678;39.642;22.430;2023-12-20T13:38:53;12.40;79.73
65478;SHT31;53678;39.642;22.430;2023-12-20T13:41:20;12.46;79.80
65478;SHT31;53678;39.642;22.430;2023-12-20T13:43:45;12.50;79.80
65478;SHT31;53678;39.642;22.430;2023-12-20T13:46:11;12.52;79.91
65478;SHT31;53678;39.642;22.430;2023-12-20T13:48:37;12.40;80.06
65478;SHT31;53678;39.642;22.430;2023-12-20T13:51:03;12.50;80.01
65478;SHT31;53678;39.642;22.430;2023-12-20T13:53:29;12.45;80.20
65478;SHT31;53678;39.642;22.430;2023-12-20T13:55:55;12.28;80.64
65478;SHT31;53678;39.642;22.430;2023-12-20T13:58:20;12.21;80.78
65478;SHT31;53678;39.642;22.430;2023-12-20T14:00:46;12.28;81.11
65478;SHT31;53678;39.642;22.430;2023-12-20T14:03:12;12.16;81.20
65478;SHT31;53678;39.642;22.430;2023-12-20T14:05:38;12.12;81.28
65478;SHT31;53678;39.642;22.430;2023-12-20T14:08:04;12.11;81.67
65478;SHT31;53678;39.642;22.430;2023-12-20T14:10:30;12.04;81.92
65478;SHT31;53678;39.642;22.430;2023-12-20T14:12:56;12.05;82.26
65478;SHT31;53678;39.642;22.430;2023-12-20T14:15:21;12.02;82.33
65478;SHT31;53678;39.642;22.430;2023-12-20T14:17:50;12.04;82.13
65478;SHT31;53678;39.642;22.430;2023-12-20T14:20:18;11.97;82.57
65478;SHT31;53678;39.642;22.430;2023-12-20T14:22:43;11.87;82.81
65478;SHT31;53678;39.642;22.430;2023-12-20T14:25:14;11.94;82.36
65478;SHT31;53678;39.642;22.430;2023-12-20T14:27:40;11.99;83.18
65478;SHT31;53678;39.642;22.430;2023-12-20T14:30:09;11.99;82.56
65478;SHT31;53678;39.642;22.430;2023-12-20T14:32:35;11.75;82.84
65478;SHT31;53678;39.642;22.430;2023-12-20T14:35:07;11.66;83.29
65478;SHT31;53678;39.642;22.430;2023-12-20T14:37:37;11.57;83.53
65478;SHT31;53678;39.642;22.430;2023-12-20T14:40:09;11.54;83.56
65478;SHT31;53678;39.642;22.430;2023-12-20T14:42:48;11.46;84.04
65478;SHT31;53678;39.642;22.430;2023-12-20T14:45:15;11.57;84.21
65478;SHT31;53678;39.642;22.430;2023-12-20T14:47:42;11.54;84.18
65478;SHT31;53678;39.642;22.430;2023-12-20T14:50:08;11.63;83.93
65478;SHT31;53678;39.642;22.430;2023-12-20T14:52:34;11.68;83.72
65478;SHT31;53678;39.642;22.430;2023-12-20T14:55:00;11.57;84.15
65478;SHT31;53678;39.642;22.430;2023-12-20T14:57:29;11.50;84.39
65478;SHT31;53678;39.642;22.430;2023-12-20T14:59:57;11.41;84.77
65478;SHT31;53678;39.642;22.430;2023-12-20T15:02:23;11.47;84.76
65478;SHT31;53678;39.642;22.430;2023-12-20T15:04:48;11.44;84.67
65478;SHT31;53678;39.642;22.430;2023-12-20T15:07:16;11.39;84.73
65478;SHT31;53678;39.642;22.430;2023-12-20T15:09:42;11.46;84.92
65478;SHT31;53678;39.642;22.430;2023-12-20T15:12:11;11.44;84.51
65478;SHT31;53678;39.642;22.430;2023-12-20T15:14:38;11.36;85.25
65478;SHT31;53678;39.642;22.430;2023-12-20T15:17:03;11.20;86.42
65478;SHT31;53678;39.642;22.430;2023-12-20T15:19:32;10.99;87.09
65478;SHT31;53678;39.642;22.430;2023-12-20T15:21:58;10.91;88.49
65478;SHT31;53678;39.642;22.430;2023-12-20T15:24:25;10.69;89.25
65478;SHT31;53678;39.642;22.430;2023-12-20T15:26:54;10.57;90.91